sensor_id;sensor_type;location;lat;lon;timestamp;pressure;altitude;pressure_sealevel;temperature
11926;BMP180;6022;48.768;18.608;2023-08-06T00:00:41;96980.53;;;21.29
11926;BMP180;6022;48.768;18.608;2023-08-06T00:03:08;96987.50;;;21.29
11926;BMP180;6022;48.768;18.608;2023-08-06T00:05:36;96985.50;;;21.31
11926;BMP180;6022;48.768;18.608;2023-08-06T00:08:03;96977.00;;;21.30
11926;BMP180;6022;48.768;18.608;2023-08-06T00:10:30;96982.34;;;21.29
11926;BMP180;6022;48.768;18.608;2023-08-06T00:12:57;96981.16;;;21.31
11926;BMP180;6022;48.768;18.608;2023-08-06T00:15:24;96980.34;;;21.31
11926;BMP180;6022;48.768;18.608;2023-08-06T00:17:51;96977.00;;;21.30
11926;BMP180;6022;48.768;18.608;2023-08-06T00:20:18;96972.81;;;21.29
11926;BMP180;6022;48.768;18.608;2023-08-06T00:22:45;96977.78;;;21.31
11926;BMP180;6022;48.768;18.608;2023-08-06T00:25:12;96980.94;;;21.33
11926;BMP180;6022;48.768;18.608;2023-08-06T00:27:40;96990.28;;;21.34
11926;BMP180;6022;48.768;18.608;2023-08-06T00:30:07;96976.41;;;21.28
11926;BMP180;6022;48.768;18.608;2023-08-06T00:32:34;96967.47;;;21.31
11926;BMP180;6022;48.768;18.608;2023-08-06T00:35:01;96952.16;;;21.29
11926;BMP180;6022;48.768;18.608;2023-08-06T00:37:28;96942.28;;;21.26
11926;BMP180;6022;48.768;18.608;2023-08-06T00:39:56;96938.50;;;21.29
11926;BMP180;6022;48.768;18.608;2023-08-06T00:42:23;96944.25;;;21.31
11926;BMP180;6022;48.768;18.608;2023-08-06T00:44:50;96934.13;;;21.29
11926;BMP180;6022;48.768;18.608;2023-08-06T00:47:17;96927.97;;;21.30
11926;BMP180;6022;48.768;18.608;2023-08-06T00:49:44;96932.53;;;21.28
11926;BMP180;6022;48.768;18.608;2023-08-06T00:52:12;96920.63;;;21.27
11926;BMP180;6022;48.768;18.608;2023-08-06T00:54:41;96918.03;;;21.27
11926;BMP180;6022;48.768;18.608;2023-08-06T00:57:09;96919.66;;;21.28
11926;BMP180;6022;48.768;18.608;2023-08-06T00:59:38;96912.50;;;21.24
11926;BMP180;6022;48.768;18.608;2023-08-06T01:02:05;96910.91;;;21.23
11926;BMP180;6022;48.768;18.608;2023-08-06T01:04:33;96907.56;;;21.23
11926;BMP180;6022;48.768;18.608;2023-08-06T01:07:12;96906.53;;;21.23
11926;BMP180;6022;48.768;18.608;2023-08-06T01:12:58;96909.31;;;21.16
11926;BMP180;6022;48.768;18.608;2023-08-06T01:15:41;96901.97;;;21.13
11926;BMP180;6022;48.768;18.608;2023-08-06T01:18:10;96907.34;;;21.05
11926;BMP180;6022;48.768;18.608;2023-08-06T01:20:37;96906.13;;;21.01
11926;BMP180;6022;48.768;18.608;2023-08-06T01:23:04;96901.38;;;20.98
11926;BMP180;6022;48.768;18.608;2023-08-06T01:25:57;96893.81;;;20.90
11926;BMP180;6022;48.768;18.608;2023-08-06T01:28:44;96892.63;;;20.86
11926;BMP180;6022;48.768;18.608;2023-08-06T01:31:33;96896.41;;;20.84
11926;BMP180;6022;48.768;18.608;2023-08-06T01:34:05;96903.31;;;20.83
11926;BMP180;6022;48.768;18.608;2023-08-06T01:36:33;96913.63;;;20.83
11926;BMP180;6022;48.768;18.608;2023-08-06T01:39:00;96907.69;;;20.83
11926;BMP180;6022;48.768;18.608;2023-08-06T01:41:28;96907.88;;;20.81
11926;BMP180;6022;48.768;18.608;2023-08-06T01:43:55;96904.72;;;20.79
11926;BMP180;6022;48.768;18.608;2023-08-06T01:46:22;96907.50;;;20.78
11926;BMP180;6022;48.768;18.608;2023-08-06T01:48:49;96895.00;;;20.75
11926;BMP180;6022;48.768;18.608;2023-08-06T01:51:16;96895.38;;;20.72
11926;BMP180;6022;48.768;18.608;2023-08-06T01:53:43;96891.81;;;20.73
11926;BMP180;6022;48.768;18.608;2023-08-06T01:56:10;96892.03;;;20.71
11926;BMP180;6022;48.768;18.608;2023-08-06T01:58:37;96890.44;;;20.70
11926;BMP180;6022;48.768;18.608;2023-08-06T02:01:04;96886.28;;;20.69
11926;BMP180;6022;48.768;18.608;2023-08-06T02:03:32;96889.84;;;20.68
11926;BMP180;6022;48.768;18.608;2023-08-06T02:05:59;96871.59;;;20.63
11926;BMP180;6022;48.768;18.608;2023-08-06T02:08:27;96866.44;;;20.63
11926;BMP180;6022;48.768;18.608;2023-08-06T02:10:54;96866.59;;;20.55
11926;BMP180;6022;48.768;18.608;2023-08-06T02:13:21;96859.66;;;20.49
11926;BMP180;6022;48.768;18.608;2023-08-06T02:15:48;96848.91;;;20.40
11926;BMP180;6022;48.768;18.608;2023-08-06T02:18:15;96852.09;;;20.35
11926;BMP180;6022;48.768;18.608;2023-08-06T02:20:43;96852.28;;;20.34
11926;BMP180;6022;48.768;18.608;2023-08-06T02:23:10;96837.59;;;20.34
11926;BMP180;6022;48.768;18.608;2023-08-06T02:25:37;96841.00;;;20.35
11926;BMP180;6022;48.768;18.608;2023-08-06T02:28:05;96837.41;;;20.36
11926;BMP180;6022;48.768;18.608;2023-08-06T02:30:32;96831.06;;;20.38
11926;BMP180;6022;48.768;18.608;2023-08-06T02:32:59;96833.09;;;20.43
11926;BMP180;6022;48.768;18.608;2023-08-06T02:35:26;96831.28;;;20.43
11926;BMP180;6022;48.768;18.608;2023-08-06T02:37:53;96829.72;;;20.42
11926;BMP180;6022;48.768;18.608;2023-08-06T02:40:20;96825.53;;;20.35
11926;BMP180;6022;48.768;18.608;2023-08-06T02:42:47;96831.28;;;20.37
11926;BMP180;6022;48.768;18.608;2023-08-06T02:45:14;96832.25;;;20.29
11926;BMP180;6022;48.768;18.608;2023-08-06T02:47:41;96814.44;;;20.28
11926;BMP180;6022;48.768;18.608;2023-08-06T02:50:09;96818.38;;;20.30
11926;BMP180;6022;48.768;18.608;2023-08-06T02:52:36;96819.38;;;20.36
11926;BMP180;6022;48.768;18.608;2023-08-06T02:55:07;96806.31;;;20.31
11926;BMP180;6022;48.768;18.608;2023-08-06T02:57:34;96797.38;;;20.27
11926;BMP180;6022;48.768;18.608;2023-08-06T03:00:01;96792.81;;;20.29
11926;BMP180;6022;48.768;18.608;2023-08-06T03:02:29;96802.16;;;20.30
11926;BMP180;6022;48.768;18.608;2023-08-06T03:04:56;96799.78;;;20.35
11926;BMP180;6022;48.768;18.608;2023-08-06T03:07:23;96803.56;;;20.39
11926;BMP180;6022;48.768;18.608;2023-08-06T03:09:53;96798.22;;;20.40
11926;BMP180;6022;48.768;18.608;2023-08-06T03:12:22;96791.69;;;20.44
11926;BMP180;6022;48.768;18.608;2023-08-06T03:14:49;96790.69;;;20.45
11926;BMP180;6022;48.768;18.608;2023-08-06T03:17:16;96789.88;;;20.45
11926;BMP180;6022;48.768;18.608;2023-08-06T03:19:43;96796.44;;;20.47
11926;BMP180;6022;48.768;18.608;2023-08-06T03:22:11;96791.09;;;20.48
11926;BMP180;6022;48.768;18.608;2023-08-06T03:24:38;96791.09;;;20.48
11926;BMP180;6022;48.768;18.608;2023-08-06T03:27:05;96778.59;;;20.45
11926;BMP180;6022;48.768;18.608;2023-08-06T03:29:33;96788.50;;;20.48
11926;BMP180;6022;48.768;18.608;2023-08-06T03:32:00;96791.09;;;20.48
11926;BMP180;6022;48.768;18.608;2023-08-06T03:34:27;96783.72;;;20.45
11926;BMP180;6022;48.768;18.608;2023-08-06T03:36:54;96782.16;;;20.45
11926;BMP180;6022;48.768;18.608;2023-08-06T03:39:21;96779.59;;;20.45
11926;BMP180;6022;48.768;18.608;2023-08-06T03:41:49;96777.63;;;20.40
11926;BMP180;6022;48.768;18.608;2023-08-06T03:44:16;96766.69;;;20.38
11926;BMP180;6022;48.768;18.608;2023-08-06T03:46:44;96761.75;;;20.37
11926;BMP180;6022;48.768;18.608;2023-08-06T03:49:12;96756.59;;;20.37
11926;BMP180;6022;48.768;18.608;2023-08-06T03:51:40;96753.44;;;20.35
11926;BMP180;6022;48.768;18.608;2023-08-06T03:54:07;96755.00;;;20.36
11926;BMP180;6022;48.768;18.608;2023-08-06T03:56:34;96751.84;;;20.34
11926;BMP180;6022;48.768;18.608;2023-08-06T03:59:02;96749.06;;;20.35
11926;BMP180;6022;48.768;18.608;2023-08-06T04:30:29;96719.72;;;20.17
11926;BMP180;6022;48.768;18.608;2023-08-06T04:33:19;96720.91;;;20.14
11926;BMP180;6022;48.768;18.608;2023-08-06T04:35:57;96723.31;;;20.16
11926;BMP180;6022;48.768;18.608;2023-08-06T04:41:20;96710.59;;;20.08
11926;BMP180;6022;48.768;18.608;2023-08-06T04:43:53;96714.78;;;20.09
11926;BMP180;6022;48.768;18.608;2023-08-06T04:46:20;96715.16;;;20.06
11926;BMP180;6022;48.768;18.608;2023-08-06T04:49:22;96709.81;;;20.01
11926;BMP180;6022;48.768;18.608;2023-08-06T04:51:50;96704.66;;;20.01
11926;BMP180;6022;48.768;18.608;2023-08-06T04:54:24;96709.22;;;19.99
11926;BMP180;6022;48.768;18.608;2023-08-06T04:56:56;96707.03;;;19.96
11926;BMP180;6022;48.768;18.608;2023-08-06T04:59:26;96707.41;;;19.93
11926;BMP180;6022;48.768;18.608;2023-08-06T05:01:53;96712.56;;;19.93
11926;BMP180;6022;48.768;18.608;2023-08-06T05:04:21;96716.50;;;19.89
11926;BMP180;6022;48.768;18.608;2023-08-06T05:06:52;96720.88;;;19.89
11926;BMP180;6022;48.768;18.608;2023-08-06T05:09:20;96705.03;;;19.85
11926;BMP180;6022;48.768;18.608;2023-08-06T05:11:47;96712.13;;;19.83
11926;BMP180;6022;48.768;18.608;2023-08-06T05:14:14;96712.69;;;19.79
11926;BMP180;6022;48.768;18.608;2023-08-06T05:16:42;96702.78;;;19.76
11926;BMP180;6022;48.768;18.608;2023-08-06T05:19:09;96710.91;;;19.73
11926;BMP180;6022;48.768;18.608;2023-08-06T05:21:36;96701.59;;;19.66
11926;BMP180;6022;48.768;18.608;2023-08-06T05:24:03;96703.34;;;19.59
11926;BMP180;6022;48.768;18.608;2023-08-06T05:26:31;96698.97;;;19.59
11926;BMP180;6022;48.768;18.608;2023-08-06T05:28:58;96709.84;;;19.55
11926;BMP180;6022;48.768;18.608;2023-08-06T05:31:27;96705.09;;;19.52
11926;BMP180;6022;48.768;18.608;2023-08-06T05:33:55;96706.69;;;19.53
11926;BMP180;6022;48.768;18.608;2023-08-06T05:36:25;96708.84;;;19.56
11926;BMP180;6022;48.768;18.608;2023-08-06T05:38:56;96702.50;;;19.52
11926;BMP180;6022;48.768;18.608;2023-08-06T05:41:23;96700.34;;;19.49
11926;BMP180;6022;48.768;18.608;2023-08-06T05:43:50;96703.28;;;19.39
11926;BMP180;6022;48.768;18.608;2023-08-06T05:46:17;96691.22;;;19.40
11926;BMP180;6022;48.768;18.608;2023-08-06T05:48:44;96687.03;;;19.39
11926;BMP180;6022;48.768;18.608;2023-08-06T05:51:11;96694.16;;;19.37
11926;BMP180;6022;48.768;18.608;2023-08-06T05:53:40;96693.78;;;19.40
11926;BMP180;6022;48.768;18.608;2023-08-06T05:56:07;96697.31;;;19.39
11926;BMP180;6022;48.768;18.608;2023-08-06T05:58:34;96687.03;;;19.39
11926;BMP180;6022;48.768;18.608;2023-08-06T06:01:04;96690.19;;;19.34
11926;BMP180;6022;48.768;18.608;2023-08-06T06:03:31;96694.56;;;19.34
11926;BMP180;6022;48.768;18.608;2023-08-06T06:06:01;96694.56;;;19.34
11926;BMP180;6022;48.768;18.608;2023-08-06T06:08:28;96690.97;;;19.35
11926;BMP180;6022;48.768;18.608;2023-08-06T06:10:55;96693.94;;;19.32
11926;BMP180;6022;48.768;18.608;2023-08-06T06:13:22;96698.09;;;19.33
11926;BMP180;6022;48.768;18.608;2023-08-06T06:15:49;96690.19;;;19.28
11926;BMP180;6022;48.768;18.608;2023-08-06T06:18:16;96689.56;;;19.26
11926;BMP180;6022;48.768;18.608;2023-08-06T06:20:44;96683.44;;;19.27
11926;BMP180;6022;48.768;18.608;2023-08-06T06:23:11;96673.75;;;19.29
11926;BMP180;6022;48.768;18.608;2023-08-06T06:25:43;96683.06;;;19.30
11926;BMP180;6022;48.768;18.608;2023-08-06T06:28:11;96689.78;;;19.31
11926;BMP180;6022;48.768;18.608;2023-08-06T06:30:38;96681.69;;;19.34
11926;BMP180;6022;48.768;18.608;2023-08-06T06:33:05;96685.44;;;19.32
11926;BMP180;6022;48.768;18.608;2023-08-06T06:35:32;96671.41;;;19.34
11926;BMP180;6022;48.768;18.608;2023-08-06T06:37:59;96675.94;;;19.32
11926;BMP180;6022;48.768;18.608;2023-08-06T06:40:27;96679.09;;;19.28
11926;BMP180;6022;48.768;18.608;2023-08-06T06:42:54;96677.09;;;19.30
11926;BMP180;6022;48.768;18.608;2023-08-06T06:45:21;96671.38;;;19.28
11926;BMP180;6022;48.768;18.608;2023-08-06T06:47:48;96672.97;;;19.22
11926;BMP180;6022;48.768;18.608;2023-08-06T06:50:16;96678.28;;;19.27
11926;BMP180;6022;48.768;18.608;2023-08-06T06:52:43;96670.41;;;19.29
11926;BMP180;6022;48.768;18.608;2023-08-06T06:55:11;96661.69;;;19.30
11926;BMP180;6022;48.768;18.608;2023-08-06T06:57:39;96674.34;;;19.31
11926;BMP180;6022;48.768;18.608;2023-08-06T07:00:07;96676.16;;;19.37
11926;BMP180;6022;48.768;18.608;2023-08-06T07:02:34;96670.81;;;19.38
11926;BMP180;6022;48.768;18.608;2023-08-06T07:05:01;96674.94;;;19.33
11926;BMP180;6022;48.768;18.608;2023-08-06T07:07:29;96674.34;;;19.31
11926;BMP180;6022;48.768;18.608;2023-08-06T07:09:56;96679.44;;;19.18
11926;BMP180;6022;48.768;18.608;2023-08-06T07:12:23;96670.72;;;19.13
11926;BMP180;6022;48.768;18.608;2023-08-06T07:14:50;96685.94;;;19.14
11926;BMP180;6022;48.768;18.608;2023-08-06T07:17:18;96675.22;;;19.04
11926;BMP180;6022;48.768;18.608;2023-08-06T07:19:45;96680.53;;;18.96
11926;BMP180;6022;48.768;18.608;2023-08-06T07:22:12;96686.28;;;18.98
11926;BMP180;6022;48.768;18.608;2023-08-06T07:24:39;96677.97;;;18.96
11926;BMP180;6022;48.768;18.608;2023-08-06T07:27:06;96674.63;;;19.02
11926;BMP180;6022;48.768;18.608;2023-08-06T07:29:33;96682.53;;;19.01
11926;BMP180;6022;48.768;18.608;2023-08-06T07:32:01;96679.28;;;18.92
11926;BMP180;6022;48.768;18.608;2023-08-06T07:34:29;96681.06;;;18.92
11926;BMP180;6022;48.768;18.608;2023-08-06T07:36:56;96678.09;;;18.89
11926;BMP180;6022;48.768;18.608;2023-08-06T07:39:23;96673.94;;;18.88
11926;BMP180;6022;48.768;18.608;2023-08-06T07:41:53;96677.63;;;18.79
11926;BMP180;6022;48.768;18.608;2023-08-06T07:44:24;96673.91;;;18.81
11926;BMP180;6022;48.768;18.608;2023-08-06T07:46:53;96665.38;;;18.81
11926;BMP180;6022;48.768;18.608;2023-08-06T07:49:36;96658.25;;;18.76
11926;BMP180;6022;48.768;18.608;2023-08-06T07:52:04;96655.91;;;18.81
11926;BMP180;6022;48.768;18.608;2023-08-06T07:54:31;96655.25;;;18.73
11926;BMP180;6022;48.768;18.608;2023-08-06T07:57:01;96658.00;;;18.71
11926;BMP180;6022;48.768;18.608;2023-08-06T07:59:41;96652.69;;;18.73
11926;BMP180;6022;48.768;18.608;2023-08-06T08:02:11;96656.78;;;18.61
11926;BMP180;6022;48.768;18.608;2023-08-06T08:04:39;96658.13;;;18.57
11926;BMP180;6022;48.768;18.608;2023-08-06T08:07:06;96661.50;;;18.57
11926;BMP180;6022;48.768;18.608;2023-08-06T08:09:35;96659.53;;;18.59
11926;BMP180;6022;48.768;18.608;2023-08-06T08:12:03;96660.31;;;18.60
11926;BMP180;6022;48.768;18.608;2023-08-06T08:14:30;96661.69;;;18.56
11926;BMP180;6022;48.768;18.608;2023-08-06T08:17:03;96656.53;;;18.56
11926;BMP180;6022;48.768;18.608;2023-08-06T08:19:32;96658.50;;;18.54
11926;BMP180;6022;48.768;18.608;2023-08-06T08:22:00;96660.44;;;18.46
11926;BMP180;6022;48.768;18.608;2023-08-06T08:24:27;96668.31;;;18.44
11926;BMP180;6022;48.768;18.608;2023-08-06T08:26:54;96667.31;;;18.45
11926;BMP180;6022;48.768;18.608;2023-08-06T08:29:22;96664.75;;;18.45
11926;BMP180;6022;48.768;18.608;2023-08-06T08:31:57;96670.31;;;18.49
11926;BMP180;6022;48.768;18.608;2023-08-06T08:34:25;96666.06;;;18.35
11926;BMP180;6022;48.768;18.608;2023-08-06T08:36:57;96672.59;;;18.37
11926;BMP180;6022;48.768;18.608;2023-08-06T08:39:25;96676.16;;;18.36
11926;BMP180;6022;48.768;18.608;2023-08-06T08:41:56;96676.50;;;18.27
11926;BMP180;6022;48.768;18.608;2023-08-06T08:44:42;96677.59;;;18.18
11926;BMP180;6022;48.768;18.608;2023-08-06T08:47:47;96687.78;;;18.12
11926;BMP180;6022;48.768;18.608;2023-08-06T08:50:19;96686.53;;;18.08
11926;BMP180;6022;48.768;18.608;2023-08-06T08:52:47;96696.59;;;18.03
11926;BMP180;6022;48.768;18.608;2023-08-06T08:55:18;96701.63;;;17.96
11926;BMP180;6022;48.768;18.608;2023-08-06T08:57:51;96697.38;;;17.82
11926;BMP180;6022;48.768;18.608;2023-08-06T09:00:18;96691.81;;;17.79
11926;BMP180;6022;48.768;18.608;2023-08-06T09:02:52;96702.13;;;17.85
11926;BMP180;6022;48.768;18.608;2023-08-06T09:05:22;96706.88;;;17.88
11926;BMP180;6022;48.768;18.608;2023-08-06T09:07:53;96698.22;;;17.89
11926;BMP180;6022;48.768;18.608;2023-08-06T09:10:22;96709.63;;;17.87
11926;BMP180;6022;48.768;18.608;2023-08-06T09:12:52;96702.53;;;17.89
11926;BMP180;6022;48.768;18.608;2023-08-06T09:15:26;96705.94;;;17.89
11926;BMP180;6022;48.768;18.608;2023-08-06T09:17:54;96712.44;;;17.92
11926;BMP180;6022;48.768;18.608;2023-08-06T09:20:22;96710.16;;;17.97
11926;BMP180;6022;48.768;18.608;2023-08-06T09:22:52;96722.72;;;17.92
11926;BMP180;6022;48.768;18.608;2023-08-06T09:25:24;96732.06;;;17.78
11926;BMP180;6022;48.768;18.608;2023-08-06T09:27:52;96734.00;;;17.77
11926;BMP180;6022;48.768;18.608;2023-08-06T09:30:31;96743.81;;;17.73
11926;BMP180;6022;48.768;18.608;2023-08-06T09:33:02;96747.63;;;17.63
11926;BMP180;6022;48.768;18.608;2023-08-06T09:35:31;96750.41;;;17.61
11926;BMP180;6022;48.768;18.608;2023-08-06T09:38:12;96756.09;;;17.42
11926;BMP180;6022;48.768;18.608;2023-08-06T09:40:40;96751.03;;;17.35
11926;BMP180;6022;48.768;18.608;2023-08-06T09:43:08;96754.50;;;17.27
11926;BMP180;6022;48.768;18.608;2023-08-06T09:45:37;96762.28;;;17.19
11926;BMP180;6022;48.768;18.608;2023-08-06T09:48:07;96761.81;;;17.16
11926;BMP180;6022;48.768;18.608;2023-08-06T09:50:37;96774.00;;;17.14
11926;BMP180;6022;48.768;18.608;2023-08-06T09:53:07;96773.47;;;17.04
11926;BMP180;6022;48.768;18.608;2023-08-06T09:55:36;96775.75;;;16.99
11926;BMP180;6022;48.768;18.608;2023-08-06T09:58:04;96780.69;;;17.01
11926;BMP180;6022;48.768;18.608;2023-08-06T10:00:33;96789.78;;;17.03
11926;BMP180;6022;48.768;18.608;2023-08-06T10:03:07;96793.34;;;17.02
11926;BMP180;6022;48.768;18.608;2023-08-06T10:05:37;96798.88;;;16.91
11926;BMP180;6022;48.768;18.608;2023-08-06T10:08:06;96795.78;;;16.81
11926;BMP180;6022;48.768;18.608;2023-08-06T10:10:37;96803.47;;;16.81
11926;BMP180;6022;48.768;18.608;2023-08-06T10:13:06;96806.97;;;16.80
11926;BMP180;6022;48.768;18.608;2023-08-06T10:15:34;96820.47;;;16.74
11926;BMP180;6022;48.768;18.608;2023-08-06T10:18:04;96824.34;;;16.70
11926;BMP180;6022;48.768;18.608;2023-08-06T10:20:34;96820.72;;;16.65
11926;BMP180;6022;48.768;18.608;2023-08-06T10:23:04;96823.44;;;16.63
11926;BMP180;6022;48.768;18.608;2023-08-06T10:25:34;96826.22;;;16.62
11926;BMP180;6022;48.768;18.608;2023-08-06T10:28:09;96826.44;;;16.53
11926;BMP180;6022;48.768;18.608;2023-08-06T10:30:47;96832.13;;;16.40
11926;BMP180;6022;48.768;18.608;2023-08-06T10:33:14;96823.81;;;16.38
11926;BMP180;6022;48.768;18.608;2023-08-06T10:35:48;96833.69;;;16.41
11926;BMP180;6022;48.768;18.608;2023-08-06T10:38:25;96837.69;;;16.44
11926;BMP180;6022;48.768;18.608;2023-08-06T10:43:34;96828.53;;;16.49
11926;BMP180;6022;48.768;18.608;2023-08-06T10:46:03;96828.75;;;16.62
11926;BMP180;6022;48.768;18.608;2023-08-06T10:48:39;96825.34;;;16.69
11926;BMP180;6022;48.768;18.608;2023-08-06T10:51:14;96822.09;;;16.75
11926;BMP180;6022;48.768;18.608;2023-08-06T10:53:44;96823.66;;;16.76
11926;BMP180;6022;48.768;18.608;2023-08-06T10:56:17;96819.09;;;16.86
11926;BMP180;6022;48.768;18.608;2023-08-06T10:58:46;96818.06;;;16.95
11926;BMP180;6022;48.768;18.608;2023-08-06T11:01:14;96815.41;;;17.03
11926;BMP180;6022;48.768;18.608;2023-08-06T11:03:46;96818.81;;;17.18
11926;BMP180;6022;48.768;18.608;2023-08-06T11:06:22;96825.72;;;17.32
11926;BMP180;6022;48.768;18.608;2023-08-06T11:08:54;96824.94;;;17.45
11926;BMP180;6022;48.768;18.608;2023-08-06T11:11:23;96818.47;;;17.49
11926;BMP180;6022;48.768;18.608;2023-08-06T11:13:51;96823.78;;;17.62
11926;BMP180;6022;48.768;18.608;2023-08-06T11:16:23;96815.63;;;17.59
11926;BMP180;6022;48.768;18.608;2023-08-06T11:18:54;96818.19;;;17.59
11926;BMP180;6022;48.768;18.608;2023-08-06T11:21:30;96829.69;;;17.63
11926;BMP180;6022;48.768;18.608;2023-08-06T11:23:57;96824.50;;;17.56
11926;BMP180;6022;48.768;18.608;2023-08-06T11:26:31;96827.22;;;17.55
11926;BMP180;6022;48.768;18.608;2023-08-06T11:28:58;96824.50;;;17.56
11926;BMP180;6022;48.768;18.608;2023-08-06T11:31:41;96830.50;;;17.63
11926;BMP180;6022;48.768;18.608;2023-08-06T11:34:08;96835.69;;;17.70
11926;BMP180;6022;48.768;18.608;2023-08-06T11:36:41;96844.00;;;17.72
11926;BMP180;6022;48.768;18.608;2023-08-06T11:39:11;96844.91;;;17.64
11926;BMP180;6022;48.768;18.608;2023-08-06T11:41:38;96854.44;;;17.70
11926;BMP180;6022;48.768;18.608;2023-08-06T11:44:10;96861.78;;;17.73
11926;BMP180;6022;48.768;18.608;2023-08-06T11:51:16;96861.16;;;17.85
11926;BMP180;6022;48.768;18.608;2023-08-06T11:53:55;96855.72;;;17.95
11926;BMP180;6022;48.768;18.608;2023-08-06T11:56:24;96853.09;;;18.03
11926;BMP180;6022;48.768;18.608;2023-08-06T11:59:00;96853.34;;;18.22
11926;BMP180;6022;48.768;18.608;2023-08-06T12:01:30;96862.09;;;18.27
11926;BMP180;6022;48.768;18.608;2023-08-06T12:04:08;96850.34;;;18.39
11926;BMP180;6022;48.768;18.608;2023-08-06T12:06:44;96864.53;;;18.56
11926;BMP180;6022;48.768;18.608;2023-08-06T12:09:13;96864.97;;;18.59
11926;BMP180;6022;48.768;18.608;2023-08-06T12:11:46;96856.63;;;18.72
11926;BMP180;6022;48.768;18.608;2023-08-06T12:14:37;96859.91;;;18.87
11926;BMP180;6022;48.768;18.608;2023-08-06T12:17:15;96863.09;;;18.89
11926;BMP180;6022;48.768;18.608;2023-08-06T12:19:54;96866.75;;;19.00
11926;BMP180;6022;48.768;18.608;2023-08-06T12:22:42;96864.13;;;19.15
11926;BMP180;6022;48.768;18.608;2023-08-06T12:25:13;96874.69;;;19.26
11926;BMP180;6022;48.768;18.608;2023-08-06T12:28:24;96874.88;;;19.25
11926;BMP180;6022;48.768;18.608;2023-08-06T12:30:58;96882.84;;;19.09
11926;BMP180;6022;48.768;18.608;2023-08-06T12:33:31;96889.13;;;18.86
11926;BMP180;6022;48.768;18.608;2023-08-06T12:35:59;96894.63;;;18.83
11926;BMP180;6022;48.768;18.608;2023-08-06T12:38:31;96895.19;;;18.78
11926;BMP180;6022;48.768;18.608;2023-08-06T12:41:01;96907.84;;;18.59
11926;BMP180;6022;48.768;18.608;2023-08-06T12:44:03;96916.94;;;18.41
11926;BMP180;6022;48.768;18.608;2023-08-06T12:46:31;96906.53;;;18.14
11926;BMP180;6022;48.768;18.608;2023-08-06T12:49:01;96920.53;;;18.11
11926;BMP180;6022;48.768;18.608;2023-08-06T12:51:32;96926.16;;;18.07
11926;BMP180;6022;48.768;18.608;2023-08-06T12:54:01;96934.31;;;17.96
11926;BMP180;6022;48.768;18.608;2023-08-06T12:56:45;96939.97;;;17.91
11926;BMP180;6022;48.768;18.608;2023-08-06T12:59:40;96933.63;;;17.87
11926;BMP180;6022;48.768;18.608;2023-08-06T13:02:07;96938.09;;;17.85
11926;BMP180;6022;48.768;18.608;2023-08-06T13:04:35;96933.34;;;17.82
11926;BMP180;6022;48.768;18.608;2023-08-06T13:07:03;96948.56;;;17.84
11926;BMP180;6022;48.768;18.608;2023-08-06T13:09:51;96939.25;;;17.83
11926;BMP180;6022;48.768;18.608;2023-08-06T13:12:21;96942.28;;;17.86
11926;BMP180;6022;48.768;18.608;2023-08-06T13:15:00;96951.03;;;17.92
11926;BMP180;6022;48.768;18.608;2023-08-06T13:17:28;96952.44;;;17.94
11926;BMP180;6022;48.768;18.608;2023-08-06T13:19:59;96947.13;;;17.96
11926;BMP180;6022;48.768;18.608;2023-08-06T13:22:26;96951.03;;;18.06
11926;BMP180;6022;48.768;18.608;2023-08-06T13:24:55;96949.53;;;18.12
11926;BMP180;6022;48.768;18.608;2023-08-06T13:27:24;96956.28;;;18.13
11926;BMP180;6022;48.768;18.608;2023-08-06T13:29:51;96960.34;;;18.21
11926;BMP180;6022;48.768;18.608;2023-08-06T13:32:22;96961.81;;;18.30
11926;BMP180;6022;48.768;18.608;2023-08-06T13:34:50;96951.81;;;18.35
11926;BMP180;6022;48.768;18.608;2023-08-06T13:37:17;96954.66;;;18.40
11926;BMP180;6022;48.768;18.608;2023-08-06T13:39:47;96957.06;;;18.42
11926;BMP180;6022;48.768;18.608;2023-08-06T13:42:27;96946.78;;;18.42
11926;BMP180;6022;48.768;18.608;2023-08-06T13:44:55;96950.75;;;18.44
11926;BMP180;6022;48.768;18.608;2023-08-06T13:47:32;96949.06;;;18.51
11926;BMP180;6022;48.768;18.608;2023-08-06T13:49:59;96951.63;;;18.51
11926;BMP180;6022;48.768;18.608;2023-08-06T13:52:49;96949.66;;;18.53
11926;BMP180;6022;48.768;18.608;2023-08-06T13:55:20;96954.69;;;18.61
11926;BMP180;6022;48.768;18.608;2023-08-06T13:57:47;96955.75;;;18.66
11926;BMP180;6022;48.768;18.608;2023-08-06T14:00:17;96945.81;;;18.63
11926;BMP180;6022;48.768;18.608;2023-08-06T14:02:45;96961.66;;;18.67
11926;BMP180;6022;48.768;18.608;2023-08-06T14:05:13;96965.31;;;18.58
11926;BMP180;6022;48.768;18.608;2023-08-06T14:07:41;96971.13;;;18.31
11926;BMP180;6022;48.768;18.608;2023-08-06T14:10:10;96978.66;;;18.33
11926;BMP180;6022;48.768;18.608;2023-08-06T14:12:37;96978.22;;;18.29
11926;BMP180;6022;48.768;18.608;2023-08-06T14:15:05;96996.53;;;18.26
11926;BMP180;6022;48.768;18.608;2023-08-06T14:17:32;96995.03;;;18.17
11926;BMP180;6022;48.768;18.608;2023-08-06T14:20:04;97003.81;;;18.09
11926;BMP180;6022;48.768;18.608;2023-08-06T14:22:36;97005.44;;;18.02
11926;BMP180;6022;48.768;18.608;2023-08-06T14:25:04;97011.00;;;17.91
11926;BMP180;6022;48.768;18.608;2023-08-06T14:27:34;97012.25;;;17.80
11926;BMP180;6022;48.768;18.608;2023-08-06T14:30:10;97015.75;;;17.79
11926;BMP180;6022;48.768;18.608;2023-08-06T14:32:41;97020.63;;;17.75
11926;BMP180;6022;48.768;18.608;2023-08-06T14:35:09;97024.31;;;17.72
11926;BMP180;6022;48.768;18.608;2023-08-06T14:37:36;97030.00;;;17.68
11926;BMP180;6022;48.768;18.608;2023-08-06T14:40:05;97035.81;;;17.62
11926;BMP180;6022;48.768;18.608;2023-08-06T14:42:32;97031.72;;;17.53
11926;BMP180;6022;48.768;18.608;2023-08-06T14:45:03;97036.06;;;17.52
11926;BMP180;6022;48.768;18.608;2023-08-06T14:47:31;97046.03;;;17.47
11926;BMP180;6022;48.768;18.608;2023-08-06T14:49:58;97042.50;;;17.48
11926;BMP180;6022;48.768;18.608;2023-08-06T14:52:26;97047.97;;;17.45
11926;BMP180;6022;48.768;18.608;2023-08-06T14:54:54;97054.88;;;17.45
11926;BMP180;6022;48.768;18.608;2023-08-06T14:57:22;97064.50;;;17.43
11926;BMP180;6022;48.768;18.608;2023-08-06T14:59:55;97058.91;;;17.40
11926;BMP180;6022;48.768;18.608;2023-08-06T15:02:33;97072.66;;;17.39
11926;BMP180;6022;48.768;18.608;2023-08-06T15:05:03;97081.34;;;17.38
11926;BMP180;6022;48.768;18.608;2023-08-06T15:07:31;97083.44;;;17.34